createdAt,value
2019-03-27T00:00:26.327Z,-2.20
2019-03-27T00:01:31.845Z,-2.20
2019-03-27T00:02:37.181Z,-2.20
2019-03-27T00:03:42.772Z,-2.20
2019-03-27T00:04:48.316Z,-2.20
2019-03-27T00:05:53.860Z,-2.30
2019-03-27T00:06:59.135Z,-2.20
2019-03-27T00:08:04.505Z,-2.20
2019-03-27T00:09:10.001Z,-2.20
2019-03-27T00:10:15.725Z,-2.10
2019-03-27T00:11:21.079Z,-2.10
2019-03-27T00:12:26.599Z,-2.10
2019-03-27T00:13:32.187Z,-2.20
2019-03-27T00:14:37.601Z,-2.20
2019-03-27T00:15:43.057Z,-2.20
2019-03-27T00:16:48.488Z,-2.20
2019-03-27T00:17:53.940Z,-2.20
2019-03-27T00:18:59.495Z,-2.10
2019-03-27T00:20:05.271Z,-2.10
2019-03-27T00:21:10.576Z,-2.10
2019-03-27T00:22:16.269Z,-2.10
2019-03-27T00:23:21.700Z,-2.10
2019-03-27T00:24:27.351Z,-2.10
2019-03-27T00:25:32.748Z,-2.10
2019-03-27T00:26:38.156Z,-2.10
2019-03-27T00:27:43.471Z,-2.00
2019-03-27T00:28:48.949Z,-2.00
2019-03-27T00:29:54.362Z,-2.00
2019-03-27T00:30:59.724Z,-2.00
2019-03-27T00:32:05.168Z,-1.90
2019-03-27T00:33:10.691Z,-2.00
2019-03-27T00:34:16.309Z,-1.90
2019-03-27T00:35:21.657Z,-1.90
2019-03-27T00:36:27.168Z,-1.90
2019-03-27T00:37:32.619Z,-1.90
2019-03-27T00:38:37.962Z,-1.90
2019-03-27T00:39:43.632Z,-1.80
2019-03-27T00:40:49.060Z,-1.80
2019-03-27T00:41:54.607Z,-1.70
2019-03-27T00:42:59.952Z,-1.70
2019-03-27T00:44:05.336Z,-1.70
2019-03-27T00:45:11.352Z,-1.70
2019-03-27T00:46:16.811Z,-1.80
2019-03-27T00:47:22.260Z,-1.80
2019-03-27T00:48:27.922Z,-1.80
2019-03-27T00:49:33.381Z,-1.70
2019-03-27T00:50:39.016Z,-1.80
2019-03-27T00:51:44.458Z,-1.80
2019-03-27T00:52:49.884Z,-1.70
2019-03-27T00:53:55.244Z,-1.70
2019-03-27T00:55:00.919Z,-1.70
2019-03-27T00:56:06.336Z,-1.70
2019-03-27T00:57:11.844Z,-1.70
2019-03-27T00:58:17.259Z,-1.70
2019-03-27T00:59:22.761Z,-1.70
2019-03-27T01:00:36.974Z,-1.70
2019-03-27T01:01:42.417Z,-1.70
2019-03-27T01:02:48.115Z,-1.60
2019-03-27T01:03:53.460Z,-1.60
2019-03-27T01:05:02.179Z,-1.60
2019-03-27T01:06:08.077Z,-1.70
2019-03-27T01:07:13.437Z,-1.70
2019-03-27T01:08:18.895Z,-1.70
2019-03-27T01:09:24.614Z,-1.70
2019-03-27T01:10:29.909Z,-1.70
2019-03-27T01:11:35.357Z,-1.70
2019-03-27T01:12:40.808Z,-1.70
2019-03-27T01:13:46.309Z,-1.70
2019-03-27T01:14:51.656Z,-1.70
2019-03-27T01:15:57.164Z,-1.70
2019-03-27T01:17:02.911Z,-1.60
2019-03-27T01:18:08.221Z,-1.60
2019-03-27T01:19:13.674Z,-1.60
2019-03-27T01:20:19.099Z,-1.60
2019-03-27T01:21:24.700Z,-1.60
2019-03-27T01:22:30.079Z,-1.70
2019-03-27T01:23:35.443Z,-1.70
2019-03-27T01:24:40.944Z,-1.70
2019-03-27T01:25:46.465Z,-1.70
2019-03-27T01:26:51.890Z,-1.60
2019-03-27T01:27:57.271Z,-1.60
2019-03-27T01:29:02.639Z,-1.60
2019-03-27T01:30:08.723Z,-1.60
2019-03-27T01:31:14.346Z,-1.70
2019-03-27T01:32:19.679Z,-1.70
2019-03-27T01:33:25.096Z,-1.60
2019-03-27T01:34:30.520Z,-1.70
2019-03-27T01:35:35.848Z,-1.60
2019-03-27T01:36:41.179Z,-1.60
2019-03-27T01:37:46.567Z,-1.70
2019-03-27T01:38:51.996Z,-1.70
2019-03-27T01:39:57.400Z,-1.60
2019-03-27T01:41:03.009Z,-1.60
2019-03-27T01:42:08.441Z,-1.50
2019-03-27T01:43:13.743Z,-1.60
2019-03-27T01:44:19.093Z,-1.60
2019-03-27T01:45:24.536Z,-1.60
2019-03-27T01:46:29.960Z,-1.60
2019-03-27T01:47:35.278Z,-1.60
2019-03-27T01:48:40.583Z,-1.60
2019-03-27T01:49:46.059Z,-1.60
2019-03-27T01:50:51.352Z,-1.60
2019-03-27T01:51:56.788Z,-1.60
2019-03-27T01:53:02.132Z,-1.60
2019-03-27T01:54:07.603Z,-1.60
2019-03-27T01:55:13.163Z,-1.50
2019-03-27T01:56:18.444Z,-1.50
2019-03-27T01:57:23.879Z,-1.60
2019-03-27T01:58:29.308Z,-1.60
2019-03-27T01:59:34.735Z,-1.60
2019-03-27T02:00:40.389Z,-1.60
2019-03-27T02:01:45.825Z,-1.70
2019-03-27T02:02:51.247Z,-1.70
2019-03-27T02:03:56.557Z,-1.80
2019-03-27T02:05:02.010Z,-1.80
2019-03-27T02:06:07.414Z,-1.70
2019-03-27T02:07:12.851Z,-1.80
2019-03-27T02:08:18.297Z,-1.80
2019-03-27T02:09:23.742Z,-1.90
2019-03-27T02:10:29.131Z,-1.90
2019-03-27T02:11:34.428Z,-2.00
2019-03-27T02:12:39.938Z,-2.00
2019-03-27T02:13:45.337Z,-2.00
2019-03-27T02:14:50.805Z,-1.90
2019-03-27T02:16:06.350Z,-2.00
2019-03-27T02:17:03.257Z,-2.00
2019-03-27T02:18:08.632Z,-2.00
2019-03-27T02:19:15.105Z,-2.00
2019-03-27T02:20:20.679Z,-1.90
2019-03-27T02:21:26.004Z,-2.00
2019-03-27T02:22:32.529Z,-2.00
2019-03-27T02:23:37.948Z,-2.00
2019-03-27T02:24:43.456Z,-1.90
2019-03-27T02:25:48.840Z,-1.90
2019-03-27T02:26:54.380Z,-1.90
2019-03-27T02:27:59.792Z,-1.90
2019-03-27T02:29:05.071Z,-1.90
2019-03-27T02:30:11.202Z,-1.90
2019-03-27T02:31:16.662Z,-1.90
2019-03-27T02:32:22.253Z,-1.90
2019-03-27T02:33:27.631Z,-2.00
2019-03-27T02:34:33.091Z,-2.00
2019-03-27T02:35:38.510Z,-2.00
2019-03-27T02:36:43.877Z,-2.00
2019-03-27T02:37:49.309Z,-2.10
2019-03-27T02:38:54.905Z,-2.10
2019-03-27T02:40:00.445Z,-2.10
2019-03-27T02:41:05.931Z,-2.20
2019-03-27T02:42:11.357Z,-2.20
2019-03-27T02:43:16.703Z,-2.20
2019-03-27T02:44:22.090Z,-2.20
2019-03-27T02:45:27.597Z,-2.20
2019-03-27T02:46:32.937Z,-2.30
2019-03-27T02:47:38.398Z,-2.20
2019-03-27T02:48:43.868Z,-2.30
2019-03-27T02:49:49.313Z,-2.30
2019-03-27T02:50:54.688Z,-2.30
2019-03-27T02:52:00.225Z,-2.20
2019-03-27T02:53:05.557Z,-2.30
2019-03-27T02:54:10.937Z,-2.20
2019-03-27T02:55:16.378Z,-2.20
2019-03-27T02:56:21.902Z,-2.20
2019-03-27T02:57:27.236Z,-2.20
2019-03-27T02:58:32.693Z,-2.20
2019-03-27T02:59:38.172Z,-2.20
2019-03-27T03:00:43.571Z,-2.20
2019-03-27T03:01:49.017Z,-2.20
2019-03-27T03:02:54.457Z,-2.20
2019-03-27T03:03:59.924Z,-2.20
2019-03-27T03:05:05.941Z,-2.30
2019-03-27T03:06:11.297Z,-2.20
2019-03-27T03:07:16.649Z,-2.30
2019-03-27T03:08:22.129Z,-2.30
2019-03-27T03:09:27.512Z,-2.40
2019-03-27T03:10:32.934Z,-2.40
2019-03-27T03:11:38.366Z,-2.40
2019-03-27T03:12:43.787Z,-2.40
2019-03-27T03:13:49.213Z,-2.40
2019-03-27T03:14:54.885Z,-2.40
2019-03-27T03:16:00.418Z,-2.40
2019-03-27T03:17:05.988Z,-2.40
2019-03-27T03:18:11.507Z,-2.40
2019-03-27T03:19:16.788Z,-2.40
2019-03-27T03:20:22.429Z,-2.40
2019-03-27T03:21:27.985Z,-2.40
2019-03-27T03:22:33.287Z,-2.40
2019-03-27T03:23:38.808Z,-2.40
2019-03-27T03:24:44.234Z,-2.40
2019-03-27T03:25:49.579Z,-2.30
2019-03-27T03:26:55.037Z,-2.30
2019-03-27T03:28:00.491Z,-2.30
2019-03-27T03:29:05.968Z,-2.30
2019-03-27T03:30:11.786Z,-2.40
2019-03-27T03:31:17.361Z,-2.40
2019-03-27T03:32:22.713Z,-2.40
2019-03-27T03:33:28.174Z,-2.40
2019-03-27T03:34:33.661Z,-2.50
2019-03-27T03:35:38.952Z,-2.50
2019-03-27T03:36:45.503Z,-2.50
2019-03-27T03:37:50.994Z,-2.50
2019-03-27T03:38:56.443Z,-2.60
2019-03-27T03:40:01.805Z,-2.50
2019-03-27T03:41:07.508Z,-2.40
2019-03-27T03:42:12.954Z,-2.50
2019-03-27T03:43:18.382Z,-2.50
2019-03-27T03:44:23.816Z,-2.50
2019-03-27T03:45:29.304Z,-2.50
2019-03-27T03:46:34.681Z,-2.50
2019-03-27T03:47:40.080Z,-2.50
2019-03-27T03:48:45.636Z,-2.50
2019-03-27T03:49:51.159Z,-2.50
2019-03-27T03:51:00.172Z,-2.60
2019-03-27T03:52:05.992Z,-2.60
2019-03-27T03:53:13.361Z,-2.70
2019-03-27T03:54:19.349Z,-2.80
2019-03-27T03:55:25.308Z,-2.80
2019-03-27T03:56:33.402Z,-2.90
2019-03-27T03:57:39.210Z,-2.90
2019-03-27T03:58:44.825Z,-3.00
2019-03-27T03:59:51.608Z,-3.00
2019-03-27T04:00:58.312Z,-2.90
2019-03-27T04:02:05.383Z,-2.90
2019-03-27T04:03:11.332Z,-3.00
2019-03-27T04:04:17.670Z,-3.00
2019-03-27T04:05:26.147Z,-3.00
2019-03-27T04:06:31.601Z,-3.00
2019-03-27T04:07:37.021Z,-3.00
2019-03-27T04:08:42.441Z,-3.00
2019-03-27T04:09:47.948Z,-2.90
2019-03-27T04:10:53.376Z,-2.90
2019-03-27T04:11:59.036Z,-2.90
2019-03-27T04:13:04.638Z,-2.90
2019-03-27T04:14:10.128Z,-2.90
2019-03-27T04:15:15.718Z,-2.90
2019-03-27T04:16:21.295Z,-2.90
2019-03-27T04:17:26.742Z,-3.00
2019-03-27T04:18:32.115Z,-3.00
2019-03-27T04:19:37.547Z,-3.00
2019-03-27T04:20:42.931Z,-3.00
2019-03-27T04:21:48.401Z,-3.00
2019-03-27T04:22:53.851Z,-3.00
2019-03-27T04:23:59.193Z,-3.00
2019-03-27T04:25:04.857Z,-3.00
2019-03-27T04:26:10.932Z,-3.00
2019-03-27T04:27:16.808Z,-3.00
2019-03-27T04:28:22.382Z,-3.00
2019-03-27T04:29:27.861Z,-3.10
2019-03-27T04:30:33.406Z,-3.10
2019-03-27T04:31:38.781Z,-3.10
2019-03-27T04:32:44.238Z,-3.20
2019-03-27T04:33:49.716Z,-3.20
2019-03-27T04:34:55.177Z,-3.10
2019-03-27T04:36:00.548Z,-3.20
2019-03-27T04:37:06.045Z,-3.20
2019-03-27T04:38:11.488Z,-3.30
2019-03-27T04:39:16.902Z,-3.20
2019-03-27T04:40:22.330Z,-3.10
2019-03-27T04:41:27.854Z,-3.20
2019-03-27T04:42:33.281Z,-3.20
2019-03-27T04:43:38.805Z,-3.30
2019-03-27T04:44:44.245Z,-3.20
2019-03-27T04:45:49.693Z,-3.20
2019-03-27T04:46:55.130Z,-3.20
2019-03-27T04:48:00.640Z,-3.30
2019-03-27T04:49:07.837Z,-3.30
2019-03-27T04:50:13.488Z,-3.20
2019-03-27T04:51:18.904Z,-3.30
2019-03-27T04:52:24.302Z,-3.20
2019-03-27T04:53:29.631Z,-3.20
2019-03-27T04:54:35.280Z,-3.30
2019-03-27T04:55:40.708Z,-3.20
2019-03-27T04:56:46.059Z,-3.10
2019-03-27T04:57:51.463Z,-3.10
2019-03-27T04:58:56.936Z,-3.10
2019-03-27T05:00:02.628Z,-3.10
2019-03-27T05:01:08.228Z,-3.00
2019-03-27T05:02:13.589Z,-3.10
2019-03-27T05:03:19.064Z,-3.10
2019-03-27T05:04:24.838Z,-3.00
2019-03-27T05:05:30.394Z,-3.10
2019-03-27T05:06:35.889Z,-3.00
2019-03-27T05:07:41.317Z,-3.00
2019-03-27T05:08:46.786Z,-3.00
2019-03-27T05:09:52.292Z,-3.00
2019-03-27T05:10:57.826Z,-3.00
2019-03-27T05:12:03.431Z,-3.00
2019-03-27T05:13:09.044Z,-3.00
2019-03-27T05:14:14.692Z,-2.90
2019-03-27T05:15:20.079Z,-2.90
2019-03-27T05:16:25.634Z,-2.80
2019-03-27T05:17:44.781Z,-2.80
2019-03-27T05:18:38.533Z,-2.80
2019-03-27T05:19:44.115Z,-2.80
2019-03-27T05:20:49.667Z,-2.80
2019-03-27T05:21:55.395Z,-2.80
2019-03-27T05:23:00.976Z,-2.80
2019-03-27T05:24:06.646Z,-2.70
2019-03-27T05:25:12.328Z,-2.70
2019-03-27T05:26:18.146Z,-2.70
2019-03-27T05:27:23.895Z,-2.60
2019-03-27T05:28:29.603Z,-2.50
2019-03-27T05:29:35.319Z,-2.50
2019-03-27T05:30:40.933Z,-2.50
2019-03-27T05:31:46.325Z,-2.40
2019-03-27T05:32:51.923Z,-2.40
2019-03-27T05:33:57.568Z,-2.30
2019-03-27T05:35:03.027Z,-2.30
2019-03-27T05:36:08.741Z,-2.20
2019-03-27T05:37:14.268Z,-2.20
2019-03-27T05:38:19.772Z,-2.10
2019-03-27T05:39:25.283Z,-2.00
2019-03-27T05:40:31.017Z,-2.00
2019-03-27T05:41:36.585Z,-1.90
2019-03-27T05:42:42.359Z,-1.80
2019-03-27T05:43:51.112Z,-1.80
2019-03-27T05:44:56.696Z,-1.70
2019-03-27T05:46:02.529Z,-1.60
2019-03-27T05:47:08.057Z,-1.50
2019-03-27T05:48:14.303Z,-1.40
2019-03-27T05:49:19.828Z,-1.40
2019-03-27T05:50:25.660Z,-1.30
2019-03-27T05:51:31.415Z,-1.20
2019-03-27T05:52:37.204Z,-1.20
2019-03-27T05:53:42.807Z,-1.10
2019-03-27T05:54:48.333Z,-1.00
2019-03-27T05:55:53.788Z,-0.90
2019-03-27T05:56:59.307Z,-0.80
2019-03-27T05:58:04.828Z,-0.80
2019-03-27T05:59:10.189Z,-0.70
2019-03-27T06:00:17.262Z,-0.60
2019-03-27T06:01:22.691Z,-0.50
2019-03-27T06:02:28.195Z,-0.40
2019-03-27T06:03:33.656Z,-0.30
2019-03-27T06:04:39.219Z,-0.30
2019-03-27T06:05:44.961Z,-0.20
2019-03-27T06:06:50.447Z,-0.20
2019-03-27T06:07:55.881Z,-0.10
2019-03-27T06:09:01.629Z,-0.10
2019-03-27T06:10:07.528Z,0.00
2019-03-27T06:11:13.050Z,0.00
2019-03-27T06:12:18.644Z,0.00
2019-03-27T06:13:24.224Z,0.10
2019-03-27T06:14:29.993Z,0.10
2019-03-27T06:15:35.513Z,0.20
2019-03-27T06:16:40.844Z,0.20
2019-03-27T06:17:46.276Z,0.30
2019-03-27T06:18:51.791Z,0.40
2019-03-27T06:19:57.514Z,0.50
2019-03-27T06:21:03.027Z,0.50
2019-03-27T06:22:08.527Z,0.60
2019-03-27T06:23:13.858Z,0.70
2019-03-27T06:24:22.511Z,0.70
2019-03-27T06:25:28.167Z,0.70
2019-03-27T06:26:33.629Z,0.80
2019-03-27T06:27:39.229Z,0.80
2019-03-27T06:28:45.034Z,0.80
2019-03-27T06:29:51.265Z,0.80
2019-03-27T06:30:57.585Z,0.80
2019-03-27T06:32:03.459Z,0.90
2019-03-27T06:33:09.784Z,0.90
2019-03-27T06:34:15.893Z,1.00
2019-03-27T06:35:21.422Z,1.00
2019-03-27T06:36:26.843Z,1.00
2019-03-27T06:37:32.333Z,1.00
2019-03-27T06:38:37.701Z,1.00
2019-03-27T06:39:43.207Z,1.00
2019-03-27T06:40:48.958Z,1.00
2019-03-27T06:41:54.485Z,1.10
2019-03-27T06:42:59.978Z,1.20
2019-03-27T06:44:05.649Z,1.20
2019-03-27T06:45:11.504Z,1.30
2019-03-27T06:46:17.016Z,1.40
2019-03-27T06:47:22.771Z,1.50
2019-03-27T06:48:30.233Z,1.60
2019-03-27T06:49:35.754Z,1.70
2019-03-27T06:50:41.204Z,1.90
2019-03-27T06:51:46.884Z,2.00
2019-03-27T06:52:54.158Z,2.00
2019-03-27T06:53:59.608Z,2.10
2019-03-27T06:55:05.885Z,2.20
2019-03-27T06:56:11.423Z,2.30
2019-03-27T06:57:16.946Z,2.30
2019-03-27T06:58:22.301Z,2.40
2019-03-27T06:59:30.540Z,2.40
2019-03-27T07:00:40.045Z,2.50
2019-03-27T07:01:46.239Z,2.60
2019-03-27T07:02:51.753Z,2.70
2019-03-27T07:04:09.906Z,2.80
2019-03-27T07:05:04.715Z,2.80
2019-03-27T07:06:10.360Z,2.80
2019-03-27T07:07:17.417Z,2.80
2019-03-27T07:08:22.960Z,2.80
2019-03-27T07:09:28.480Z,2.80
2019-03-27T07:10:34.044Z,2.90
2019-03-27T07:11:39.743Z,2.90
2019-03-27T07:12:45.163Z,2.90
2019-03-27T07:13:50.759Z,2.80
2019-03-27T07:14:56.205Z,2.80
2019-03-27T07:16:03.549Z,2.80
2019-03-27T07:17:09.055Z,2.80
2019-03-27T07:18:14.867Z,2.80
2019-03-27T07:19:20.609Z,2.90
2019-03-27T07:20:26.190Z,2.90
2019-03-27T07:21:31.711Z,2.90
2019-03-27T07:22:40.395Z,2.90
2019-03-27T07:23:47.517Z,3.00
2019-03-27T07:24:52.892Z,3.10
2019-03-27T07:25:58.298Z,3.10
2019-03-27T07:27:04.125Z,3.10
2019-03-27T07:28:09.631Z,3.10
2019-03-27T07:29:19.054Z,3.20
2019-03-27T07:30:24.987Z,3.10
2019-03-27T07:31:30.513Z,3.10
2019-03-27T07:32:35.957Z,3.10
2019-03-27T07:33:41.377Z,3.00
2019-03-27T07:34:46.889Z,3.10
2019-03-27T07:35:52.511Z,3.00
2019-03-27T07:36:59.176Z,3.00
2019-03-27T07:38:04.686Z,2.90
2019-03-27T07:39:11.283Z,3.00
2019-03-27T07:40:17.079Z,3.10
2019-03-27T07:41:22.577Z,3.10
2019-03-27T07:42:29.037Z,3.10
2019-03-27T07:43:34.782Z,3.10
2019-03-27T07:44:40.195Z,3.10
2019-03-27T07:45:45.874Z,3.10
2019-03-27T07:46:51.460Z,3.10
2019-03-27T07:47:56.921Z,3.00
2019-03-27T07:49:02.502Z,3.00
2019-03-27T07:50:09.327Z,3.00
2019-03-27T07:51:14.854Z,3.10
2019-03-27T07:52:22.254Z,3.10
2019-03-27T07:53:29.659Z,3.20
2019-03-27T07:54:35.119Z,3.30
2019-03-27T07:55:40.624Z,3.40
2019-03-27T07:56:46.343Z,3.50
2019-03-27T07:57:51.769Z,3.70
2019-03-27T07:58:59.669Z,3.70
2019-03-27T08:00:06.683Z,3.80
2019-03-27T08:01:12.176Z,3.90
2019-03-27T08:02:20.713Z,4.00
2019-03-27T08:03:26.084Z,4.00
2019-03-27T08:04:34.777Z,4.00
2019-03-27T08:05:40.433Z,4.10
2019-03-27T08:06:48.804Z,4.10
2019-03-27T08:07:54.368Z,4.20
2019-03-27T08:08:59.842Z,4.20
2019-03-27T08:10:07.251Z,4.40
2019-03-27T08:11:12.747Z,4.40
2019-03-27T08:12:18.239Z,4.50
2019-03-27T08:13:25.672Z,4.60
2019-03-27T08:14:31.507Z,4.70
2019-03-27T08:15:37.017Z,4.70
2019-03-27T08:16:42.604Z,4.90
2019-03-27T08:17:48.204Z,4.90
2019-03-27T08:19:06.588Z,5.00
2019-03-27T08:20:02.230Z,5.10
2019-03-27T08:21:07.896Z,5.20
2019-03-27T08:22:13.456Z,5.30
2019-03-27T08:23:19.135Z,5.40
2019-03-27T08:24:24.696Z,5.40
2019-03-27T08:25:30.133Z,5.60
2019-03-27T08:26:35.735Z,5.70
2019-03-27T08:27:41.316Z,5.70
2019-03-27T08:28:46.979Z,5.70
2019-03-27T08:29:52.543Z,5.80
2019-03-27T08:30:58.148Z,5.80
2019-03-27T08:32:03.794Z,5.80
2019-03-27T08:33:09.184Z,5.80
2019-03-27T08:34:14.696Z,5.90
2019-03-27T08:35:20.357Z,5.90
2019-03-27T08:36:25.742Z,6.00
2019-03-27T08:37:31.417Z,6.00
2019-03-27T08:38:37.515Z,6.10
2019-03-27T08:39:42.973Z,6.10
2019-03-27T08:40:48.691Z,6.20
2019-03-27T08:41:54.210Z,6.10
2019-03-27T08:42:59.644Z,6.20
2019-03-27T08:44:05.472Z,6.10
2019-03-27T08:45:12.012Z,6.10
2019-03-27T08:46:17.500Z,6.20
2019-03-27T08:47:23.100Z,6.20
2019-03-27T08:48:28.644Z,6.20
2019-03-27T08:49:34.184Z,6.10
2019-03-27T08:50:39.552Z,6.30
2019-03-27T08:51:45.141Z,6.20
2019-03-27T08:52:50.680Z,6.20
2019-03-27T08:53:56.030Z,6.20
2019-03-27T08:55:01.639Z,6.30
2019-03-27T08:56:07.349Z,6.50
2019-03-27T08:57:12.824Z,6.60
2019-03-27T08:58:18.427Z,6.80
2019-03-27T08:59:24.004Z,6.80
2019-03-27T09:00:52.769Z,6.90
2019-03-27T09:01:58.180Z,6.90
2019-03-27T09:03:03.610Z,7.00
2019-03-27T09:04:09.237Z,7.10
2019-03-27T09:05:14.817Z,7.00
2019-03-27T09:06:32.999Z,7.10
2019-03-27T09:07:27.328Z,7.10
2019-03-27T09:08:33.093Z,7.10
2019-03-27T09:09:38.588Z,6.90
2019-03-27T09:10:44.353Z,6.80
2019-03-27T09:11:50.006Z,6.90
2019-03-27T09:12:55.504Z,6.70
2019-03-27T09:14:01.147Z,6.70
2019-03-27T09:15:08.670Z,6.80
2019-03-27T09:16:14.125Z,6.80
2019-03-27T09:17:19.647Z,6.90
2019-03-27T09:18:25.466Z,7.00
2019-03-27T09:19:35.865Z,7.10
2019-03-27T09:20:38.243Z,7.20
2019-03-27T09:21:43.881Z,7.20
2019-03-27T09:22:49.420Z,7.20
2019-03-27T09:23:54.896Z,7.20
2019-03-27T09:25:00.541Z,7.20
2019-03-27T09:26:05.929Z,7.10
2019-03-27T09:27:11.260Z,7.10
2019-03-27T09:28:16.816Z,7.20
2019-03-27T09:29:22.382Z,7.20
2019-03-27T09:30:28.124Z,7.20
2019-03-27T09:31:44.138Z,7.30
2019-03-27T09:32:40.775Z,7.40
2019-03-27T09:33:46.050Z,7.50
2019-03-27T09:34:51.539Z,7.50
2019-03-27T09:35:57.094Z,7.60
2019-03-27T09:37:02.498Z,7.50
2019-03-27T09:38:09.157Z,7.50
2019-03-27T09:39:14.848Z,7.60
2019-03-27T09:40:20.556Z,7.40
2019-03-27T09:41:26.247Z,7.40
2019-03-27T09:42:31.754Z,7.40
2019-03-27T09:43:37.328Z,7.50
2019-03-27T09:44:42.856Z,7.50
2019-03-27T09:45:48.423Z,7.60
2019-03-27T09:46:53.937Z,7.70
2019-03-27T09:47:59.289Z,7.70
2019-03-27T09:49:04.914Z,7.80
2019-03-27T09:50:10.901Z,7.90
2019-03-27T09:51:16.307Z,7.90
2019-03-27T09:52:21.820Z,8.00
2019-03-27T09:53:27.366Z,8.10
2019-03-27T09:54:32.887Z,8.20
2019-03-27T09:55:38.541Z,8.40
2019-03-27T09:56:44.301Z,8.30
2019-03-27T09:57:49.827Z,8.40
2019-03-27T09:58:55.367Z,8.20
2019-03-27T10:00:00.950Z,8.00
2019-03-27T10:01:07.994Z,8.10
2019-03-27T10:02:13.605Z,8.10
2019-03-27T10:03:19.060Z,8.20
2019-03-27T10:04:25.653Z,8.20
2019-03-27T10:05:32.230Z,8.10
2019-03-27T10:06:37.808Z,8.20
2019-03-27T10:07:43.597Z,8.30
2019-03-27T10:08:49.152Z,8.40
2019-03-27T10:09:54.732Z,8.50
2019-03-27T10:11:00.315Z,8.60
2019-03-27T10:12:05.993Z,8.40
2019-03-27T10:13:11.514Z,8.30
2019-03-27T10:14:17.040Z,8.40
2019-03-27T10:15:23.555Z,8.40
2019-03-27T10:16:29.221Z,8.50
2019-03-27T10:17:34.639Z,8.50
2019-03-27T10:18:41.496Z,8.50
2019-03-27T10:19:47.108Z,8.50
2019-03-27T10:20:52.629Z,8.60
2019-03-27T10:21:58.145Z,8.60
2019-03-27T10:23:04.236Z,8.70
2019-03-27T10:24:09.809Z,8.90
2019-03-27T10:25:15.429Z,8.80
2019-03-27T10:26:21.109Z,8.80
2019-03-27T10:27:26.603Z,8.80
2019-03-27T10:28:32.096Z,8.80
2019-03-27T10:29:37.673Z,8.70
2019-03-27T10:30:43.508Z,8.70
2019-03-27T10:31:49.271Z,8.60
2019-03-27T10:32:54.921Z,8.80
2019-03-27T10:34:00.547Z,8.90
2019-03-27T10:35:06.652Z,8.90
2019-03-27T10:36:12.250Z,8.90
2019-03-27T10:37:17.952Z,8.80
2019-03-27T10:38:23.664Z,8.80
2019-03-27T10:39:29.165Z,8.70
2019-03-27T10:40:34.790Z,8.80
2019-03-27T10:41:40.496Z,8.90
2019-03-27T10:42:46.220Z,8.80
2019-03-27T10:43:51.688Z,8.70
2019-03-27T10:44:57.213Z,8.70
2019-03-27T10:46:03.048Z,8.70
2019-03-27T10:47:08.471Z,8.80
2019-03-27T10:48:13.925Z,8.90
2019-03-27T10:49:19.934Z,9.10
2019-03-27T10:50:25.335Z,9.20
2019-03-27T10:51:30.977Z,9.30
2019-03-27T10:52:36.524Z,9.20
2019-03-27T10:53:41.989Z,9.50
2019-03-27T10:54:47.502Z,9.50
2019-03-27T10:55:53.222Z,9.50
2019-03-27T10:56:58.872Z,9.70
2019-03-27T10:58:04.465Z,9.80
2019-03-27T10:59:10.145Z,9.70
2019-03-27T11:00:16.132Z,9.70
2019-03-27T11:01:21.785Z,9.70
2019-03-27T11:02:27.280Z,9.70
2019-03-27T11:03:34.787Z,9.80
2019-03-27T11:04:45.098Z,9.90
2019-03-27T11:05:56.257Z,9.90
2019-03-27T11:07:04.929Z,9.80
2019-03-27T11:08:15.118Z,9.80
2019-03-27T11:09:23.007Z,9.80
2019-03-27T11:10:32.522Z,9.90
2019-03-27T11:11:41.939Z,9.80
2019-03-27T11:12:49.197Z,9.80
2019-03-27T11:13:58.583Z,9.70
2019-03-27T11:15:07.349Z,9.70
2019-03-27T11:16:14.404Z,9.80
2019-03-27T11:17:19.935Z,9.90
2019-03-27T11:18:25.476Z,10.10
2019-03-27T11:19:33.513Z,10.40
2019-03-27T11:20:38.319Z,10.70
2019-03-27T11:21:43.954Z,10.90
2019-03-27T11:22:49.523Z,11.40
2019-03-27T11:23:55.138Z,11.50
2019-03-27T11:25:00.852Z,11.80
2019-03-27T11:26:06.465Z,11.70
2019-03-27T11:27:12.254Z,11.40
2019-03-27T11:28:17.792Z,11.70
2019-03-27T11:29:23.487Z,11.70
2019-03-27T11:30:38.325Z,11.50
2019-03-27T11:31:43.760Z,11.20
2019-03-27T11:32:49.566Z,10.80
2019-03-27T11:33:55.335Z,10.40
2019-03-27T11:35:00.893Z,10.30
2019-03-27T11:36:07.913Z,10.30
2019-03-27T11:37:13.509Z,10.40
2019-03-27T11:38:18.997Z,10.40
2019-03-27T11:39:24.961Z,10.60
2019-03-27T11:40:30.509Z,10.70
2019-03-27T11:41:36.114Z,10.80
2019-03-27T11:42:41.544Z,11.00
2019-03-27T11:43:54.620Z,11.40
2019-03-27T11:44:55.312Z,11.70
2019-03-27T11:46:01.990Z,12.00
2019-03-27T11:47:08.785Z,12.30
2019-03-27T11:48:14.433Z,12.90
2019-03-27T11:49:20.042Z,13.00
2019-03-27T11:50:25.603Z,13.20
2019-03-27T11:51:31.213Z,13.10
2019-03-27T11:52:37.045Z,12.50
2019-03-27T11:53:42.637Z,12.20
2019-03-27T11:54:48.333Z,11.80
2019-03-27T11:55:53.782Z,11.20
2019-03-27T11:56:59.599Z,11.00
2019-03-27T11:58:05.242Z,10.90
2019-03-27T11:59:10.708Z,10.90
2019-03-27T12:00:16.472Z,10.90
2019-03-27T12:01:22.121Z,10.70
2019-03-27T12:02:28.219Z,10.60
2019-03-27T12:03:34.288Z,10.30
2019-03-27T12:04:39.843Z,10.30
2019-03-27T12:05:45.828Z,10.30
2019-03-27T12:06:51.575Z,10.20
2019-03-27T12:07:57.345Z,10.30
2019-03-27T12:09:03.015Z,10.30
2019-03-27T12:10:09.545Z,10.30
2019-03-27T12:11:15.178Z,10.30
2019-03-27T12:12:20.814Z,10.10
2019-03-27T12:13:26.727Z,10.10
2019-03-27T12:14:32.418Z,10.20
2019-03-27T12:15:40.565Z,10.00
2019-03-27T12:16:49.741Z,10.00
2019-03-27T12:17:53.689Z,9.90
2019-03-27T12:19:00.047Z,9.80
2019-03-27T12:20:06.357Z,9.60
2019-03-27T12:21:12.107Z,9.50
2019-03-27T12:22:17.699Z,9.50
2019-03-27T12:23:23.414Z,9.40
2019-03-27T12:24:29.038Z,9.30
2019-03-27T12:25:34.536Z,9.20
2019-03-27T12:26:40.134Z,9.20
2019-03-27T12:27:45.784Z,9.10
2019-03-27T12:28:51.454Z,9.10
2019-03-27T12:29:57.293Z,9.10
2019-03-27T12:31:05.244Z,9.10
2019-03-27T12:32:10.925Z,9.10
2019-03-27T12:33:16.465Z,9.00
2019-03-27T12:34:22.017Z,8.90
2019-03-27T12:35:27.841Z,8.70
2019-03-27T12:36:33.317Z,8.70
2019-03-27T12:37:38.875Z,8.60
2019-03-27T12:38:44.550Z,8.70
2019-03-27T12:39:50.184Z,8.70
2019-03-27T12:40:55.884Z,8.60
2019-03-27T12:42:01.455Z,8.60
2019-03-27T12:43:07.328Z,8.60
2019-03-27T12:44:13.155Z,8.60
2019-03-27T12:45:19.029Z,8.60
2019-03-27T12:46:24.798Z,8.60
2019-03-27T12:47:33.362Z,8.60
2019-03-27T12:48:39.064Z,8.60
2019-03-27T12:49:44.787Z,8.60
2019-03-27T12:50:50.665Z,8.50
2019-03-27T12:51:57.329Z,8.60
2019-03-27T12:53:02.926Z,8.60
2019-03-27T12:54:09.025Z,8.60
2019-03-27T12:55:14.870Z,8.70
2019-03-27T12:56:20.396Z,8.70
2019-03-27T12:57:25.972Z,8.70
2019-03-27T12:58:31.692Z,8.60
2019-03-27T12:59:37.266Z,8.50
2019-03-27T13:00:42.818Z,8.40
2019-03-27T13:01:48.403Z,8.40
2019-03-27T13:02:53.863Z,8.40
2019-03-27T13:04:00.625Z,8.50
2019-03-27T13:05:06.759Z,8.60
2019-03-27T13:06:12.532Z,8.60
2019-03-27T13:07:18.212Z,8.50
2019-03-27T13:08:23.940Z,8.50
2019-03-27T13:09:29.429Z,8.30
2019-03-27T13:10:35.320Z,8.20
2019-03-27T13:11:41.076Z,8.20
2019-03-27T13:12:46.456Z,8.20
2019-03-27T13:13:52.212Z,8.20
2019-03-27T13:14:57.701Z,8.10
2019-03-27T13:16:03.556Z,8.10
2019-03-27T13:17:09.198Z,8.20
2019-03-27T13:18:14.815Z,8.20
2019-03-27T13:19:20.609Z,8.20
2019-03-27T13:20:26.116Z,8.20
2019-03-27T13:21:31.640Z,8.10
2019-03-27T13:22:38.519Z,8.20
2019-03-27T13:23:44.261Z,8.30
2019-03-27T13:24:49.793Z,8.20
2019-03-27T13:25:55.351Z,8.10
2019-03-27T13:27:00.952Z,8.10
2019-03-27T13:28:06.839Z,8.20
2019-03-27T13:29:15.657Z,8.10
2019-03-27T13:30:21.501Z,8.10
2019-03-27T13:31:27.057Z,8.00
2019-03-27T13:32:32.758Z,7.90
2019-03-27T13:33:38.297Z,7.80
2019-03-27T13:34:43.861Z,7.80
2019-03-27T13:35:49.453Z,7.70
2019-03-27T13:36:55.277Z,7.70
2019-03-27T13:38:00.861Z,7.70
2019-03-27T13:39:08.491Z,7.70
2019-03-27T13:40:14.863Z,7.70
2019-03-27T13:41:20.287Z,7.70
2019-03-27T13:42:25.872Z,7.70
2019-03-27T13:43:32.453Z,7.70
2019-03-27T13:44:37.960Z,7.70
2019-03-27T13:45:43.573Z,7.80
2019-03-27T13:46:49.405Z,7.80
2019-03-27T13:47:54.892Z,7.70
2019-03-27T13:49:00.427Z,7.70
2019-03-27T13:50:06.816Z,7.60
2019-03-27T13:51:12.243Z,7.60
2019-03-27T13:52:17.694Z,7.60
2019-03-27T13:53:23.297Z,7.60
2019-03-27T13:54:29.005Z,7.70
2019-03-27T13:55:35.271Z,7.80
2019-03-27T13:56:41.018Z,7.70
2019-03-27T13:57:46.450Z,7.70
2019-03-27T13:58:51.926Z,7.60
2019-03-27T13:59:57.473Z,7.60
2019-03-27T14:01:02.913Z,7.60
2019-03-27T14:02:08.608Z,7.70
2019-03-27T14:03:14.196Z,7.70
2019-03-27T14:04:19.555Z,7.90
2019-03-27T14:05:25.245Z,7.90
2019-03-27T14:06:33.902Z,7.80
2019-03-27T14:07:39.764Z,7.70
2019-03-27T14:08:45.485Z,7.60
2019-03-27T14:09:52.311Z,7.60
2019-03-27T14:10:57.905Z,7.50
2019-03-27T14:12:03.842Z,7.60
2019-03-27T14:13:09.524Z,7.60
2019-03-27T14:14:15.244Z,7.60
2019-03-27T14:15:21.380Z,7.50
2019-03-27T14:16:27.153Z,7.60
2019-03-27T14:17:32.770Z,7.60
2019-03-27T14:18:38.323Z,7.60
2019-03-27T14:19:43.914Z,7.60
2019-03-27T14:20:49.520Z,7.70
2019-03-27T14:21:55.858Z,7.60